04:55
Airports
History
Links
Donate
Help keep this website running!
PayPal
Bitcoin
This page is community maintained. The information is intended for PC simulator navigation or reference.
Always use approved charts for navigation.
SIPB
CAVU - Clube de Aviacao Ultraleve
CAVU - Clube de Aviacao Ultraleve (SIPB)
Raposa, Maranhão, Brazil (65138)
(U)
Lat/Lng:2° 26' 30" S / 44° 7' 29" W
-2.441667 / -44.124722
Elevation:109'ft / 33mMSL
ID / ICAO:SIPB
Runways:1
Longest:10-28
Asphalt 547m / 1,795ft
Nearby Weather05:00 GMT 2017-09-21
Nearby weather at SBSL, Marechal Cunha Machado located 12.7 nautical miles from SIPB
Altimeter: 29.88
Visibility: 6.2 statute miles
Wind: 9 knots (from 060°)
Temp: 26°c / 79°f
Humidity: 83.6%

METAR: SBSL 210500Z 06009KT CAVOK 26/23 Q1012

(Powered by phpweather)
Runway 10 / 28
Dimensions:547.2 x 18m 1795' x 59'ft
Surface:Asphalt
Runway 10 [A]Runway 28 [B]
Heading:079°TH 259°TH
Lat:
Lng:
2° 26' 31.69"S
44° 7' 37.76"W
2° 26' 28.31"S
44° 7' 20.24"W
User Notes and Comments
2° 26' 30" S / 44° 7' 29" W
Distance To
Airport ID:
Nearby Airports
(C) CORONEL ALEXANDRE RAPOSO 5.5 NM
SNOZ S 177°
(C) Marechal Cunha Machado 12.7 NM
SBSL ( WX ) SW 217°
(U) CENTRO DE LANCAMENTO DE ALCANTARA 19.3 NM
SNCW WNW 284°
(C) Guimaraes 41.4 NM
SNGM NW 304°
4 Antonio Guerreiro 43.0 NM
SNYW WNW 302°
4 Sao Bento 52.9 NM
SNSB WSW 249°
4 Cururupu 66.8 NM
SNCU NW 309°
VFR Chart
Flight Planning at SkyVector.com